createdAt,value
2019-05-07T00:01:51.648Z,78.30
2019-05-07T00:04:22.479Z,77.60
2019-05-07T00:06:52.795Z,75.70
2019-05-07T00:09:23.492Z,76.40
2019-05-07T00:11:53.510Z,80.90
2019-05-07T00:14:24.953Z,77.90
2019-05-07T00:16:54.560Z,80.00
2019-05-07T00:19:24.023Z,75.50
2019-05-07T00:21:54.003Z,79.80
2019-05-07T00:24:23.520Z,78.50
2019-05-07T00:26:54.324Z,77.30
2019-05-07T00:29:24.139Z,75.30
2019-05-07T00:31:53.743Z,77.40
2019-05-07T00:34:24.881Z,80.00
2019-05-07T00:36:55.954Z,76.50
2019-05-07T00:39:27.013Z,82.40
2019-05-07T00:41:58.412Z,79.50
2019-05-07T00:44:28.843Z,79.00
2019-05-07T00:47:02.185Z,80.40
2019-05-07T00:49:33.084Z,81.90
2019-05-07T00:52:02.935Z,80.10
2019-05-07T00:54:33.516Z,80.50
2019-05-07T00:57:03.203Z,78.30
2019-05-07T00:59:32.764Z,83.40
2019-05-07T01:02:02.384Z,81.10
2019-05-07T01:04:33.124Z,77.50
2019-05-07T01:07:02.921Z,78.10
2019-05-07T01:09:32.523Z,79.20
2019-05-07T01:12:03.119Z,79.20
2019-05-07T01:14:32.770Z,80.20
2019-05-07T01:17:03.239Z,83.20
2019-05-07T01:19:32.976Z,84.80
2019-05-07T01:22:03.159Z,86.00
2019-05-07T01:24:34.124Z,81.20
2019-05-07T01:27:03.733Z,81.90
2019-05-07T01:29:34.327Z,82.10
2019-05-07T01:32:05.911Z,79.70
2019-05-07T01:34:37.154Z,81.10
2019-05-07T01:37:06.729Z,79.80
2019-05-07T01:39:36.371Z,77.10
2019-05-07T01:42:05.889Z,81.90
2019-05-07T01:44:35.282Z,79.30
2019-05-07T01:47:04.899Z,83.10
2019-05-07T01:49:34.477Z,84.10
2019-05-07T01:52:03.999Z,81.60
2019-05-07T01:54:33.658Z,80.10
2019-05-07T01:57:03.306Z,81.90
2019-05-07T01:59:32.721Z,80.80
2019-05-07T02:02:03.942Z,78.50
2019-05-07T02:04:35.125Z,76.30
2019-05-07T02:07:04.587Z,77.80
2019-05-07T02:09:35.725Z,76.10
2019-05-07T02:12:04.999Z,77.10
2019-05-07T02:14:34.436Z,77.20
2019-05-07T02:17:04.055Z,76.90
2019-05-07T02:19:33.565Z,78.00
2019-05-07T02:22:03.070Z,75.60
2019-05-07T02:24:34.048Z,79.00
2019-05-07T02:27:03.700Z,78.40
2019-05-07T02:29:33.185Z,78.50
2019-05-07T02:32:04.640Z,78.00
2019-05-07T02:34:34.492Z,78.30
2019-05-07T02:37:05.948Z,78.10
2019-05-07T02:39:37.247Z,79.70
2019-05-07T02:42:06.784Z,76.60
2019-05-07T02:44:38.232Z,77.60
2019-05-07T02:47:09.312Z,79.10
2019-05-07T02:49:43.600Z,76.40
2019-05-07T02:52:13.663Z,77.20
2019-05-07T02:54:44.950Z,75.30
2019-05-07T02:57:16.976Z,77.20
2019-05-07T02:59:45.702Z,76.00
2019-05-07T03:02:15.229Z,75.00
2019-05-07T03:04:44.886Z,78.50
2019-05-07T03:07:14.424Z,79.30
2019-05-07T03:09:44.223Z,78.00
2019-05-07T03:12:13.846Z,76.10
2019-05-07T03:14:43.922Z,79.10
2019-05-07T03:17:13.775Z,79.10
2019-05-07T03:19:45.952Z,79.90
2019-05-07T03:22:15.439Z,80.30
2019-05-07T03:24:46.738Z,81.00
2019-05-07T03:27:16.399Z,80.80
2019-05-07T03:29:47.750Z,80.70
2019-05-07T03:32:18.838Z,80.80
2019-05-07T03:34:51.152Z,79.90
2019-05-07T03:37:23.418Z,82.40
2019-05-07T03:39:53.874Z,78.30
2019-05-07T03:42:23.770Z,77.30
2019-05-07T03:44:55.120Z,77.20
2019-05-07T03:47:26.271Z,77.70
2019-05-07T03:49:55.757Z,76.00
2019-05-07T03:52:25.481Z,77.50
2019-05-07T03:54:55.078Z,77.00
2019-05-07T03:57:24.683Z,80.60
2019-05-07T03:59:54.095Z,76.10
2019-05-07T04:02:24.162Z,79.90
2019-05-07T04:04:53.929Z,81.10
2019-05-07T04:07:24.655Z,79.80
2019-05-07T04:09:55.529Z,81.30
2019-05-07T04:12:25.092Z,79.10
2019-05-07T04:14:54.537Z,78.30
2019-05-07T04:17:27.042Z,79.50
2019-05-07T04:19:55.240Z,75.40
2019-05-07T04:22:28.843Z,76.60
2019-05-07T04:24:56.100Z,76.60
2019-05-07T04:27:27.114Z,75.10
2019-05-07T04:29:56.518Z,77.10
2019-05-07T04:32:27.782Z,77.00
2019-05-07T04:34:57.088Z,80.50
2019-05-07T04:37:26.599Z,75.80
2019-05-07T04:39:56.165Z,74.80
2019-05-07T04:42:25.702Z,77.10
2019-05-07T04:45:04.159Z,80.40
2019-05-07T04:47:42.593Z,79.30
2019-05-07T04:50:08.574Z,86.00
2019-05-07T04:52:38.777Z,83.20
2019-05-07T04:55:08.812Z,87.30
2019-05-07T05:00:28.982Z,87.00
2019-05-07T05:03:03.133Z,84.90
2019-05-07T05:05:32.948Z,80.30
2019-05-07T05:08:03.983Z,80.60
2019-05-07T05:10:34.244Z,87.20
2019-05-07T05:13:04.094Z,82.20
2019-05-07T05:15:34.930Z,85.90
2019-05-07T05:18:04.457Z,86.60
2019-05-07T05:20:35.605Z,83.40
2019-05-07T05:23:06.811Z,80.40
2019-05-07T05:25:38.031Z,79.00
2019-05-07T05:28:07.467Z,78.90
2019-05-07T05:30:38.710Z,85.30
2019-05-07T05:33:08.321Z,82.70
2019-05-07T05:35:38.147Z,84.00
2019-05-07T05:38:07.765Z,80.00
2019-05-07T05:40:37.348Z,81.10
2019-05-07T05:43:08.688Z,83.20
2019-05-07T05:45:39.839Z,86.50
2019-05-07T05:48:09.344Z,82.30
2019-05-07T05:50:42.294Z,82.50
2019-05-07T05:53:13.583Z,82.10
2019-05-07T05:55:43.272Z,82.50
2019-05-07T05:58:14.427Z,85.80
2019-05-07T06:00:45.518Z,84.20
2019-05-07T06:03:16.674Z,86.00
2019-05-07T06:05:48.034Z,77.00
2019-05-07T06:08:19.168Z,82.20
2019-05-07T06:10:51.895Z,74.20
2019-05-07T06:13:23.332Z,74.60
2019-05-07T06:15:54.676Z,74.40
2019-05-07T06:18:25.771Z,73.70
2019-05-07T06:20:56.846Z,74.60
2019-05-07T06:23:27.878Z,72.50
2019-05-07T06:25:57.447Z,70.70
2019-05-07T06:28:28.139Z,75.60
2019-05-07T06:30:57.656Z,78.20
2019-05-07T06:33:27.236Z,73.50
2019-05-07T06:35:56.750Z,72.00
2019-05-07T06:38:28.064Z,74.90
2019-05-07T06:40:59.299Z,75.30
2019-05-07T06:43:32.532Z,72.80
2019-05-07T06:46:03.908Z,82.20
2019-05-07T06:48:41.826Z,72.90
2019-05-07T06:51:04.600Z,69.60
2019-05-07T06:53:34.244Z,66.10
2019-05-07T06:56:04.880Z,74.60
2019-05-07T06:58:36.241Z,68.00
2019-05-07T07:01:07.547Z,67.00
2019-05-07T07:03:38.931Z,70.70
2019-05-07T07:06:12.122Z,66.60
2019-05-07T07:08:43.257Z,71.90
2019-05-07T07:11:14.516Z,71.20
2019-05-07T07:13:44.143Z,66.70
2019-05-07T07:16:13.874Z,67.00
2019-05-07T07:18:52.091Z,69.80
2019-05-07T07:21:14.899Z,67.10
2019-05-07T07:23:44.403Z,69.00
2019-05-07T07:26:13.995Z,67.40
2019-05-07T07:28:43.614Z,74.90
2019-05-07T07:31:15.065Z,69.80
2019-05-07T07:33:46.284Z,70.00
2019-05-07T07:36:15.909Z,69.50
2019-05-07T07:38:45.502Z,71.80
2019-05-07T07:41:14.983Z,76.00
2019-05-07T07:43:44.370Z,70.20
2019-05-07T07:46:16.433Z,68.30
2019-05-07T07:48:45.163Z,69.60
2019-05-07T07:51:14.835Z,66.40
2019-05-07T07:53:44.375Z,74.60
2019-05-07T07:56:15.627Z,71.80
2019-05-07T07:58:46.759Z,67.40
2019-05-07T08:01:17.889Z,72.70
2019-05-07T08:03:47.449Z,71.60
2019-05-07T08:06:16.912Z,75.20
2019-05-07T08:08:46.519Z,73.60
2019-05-07T08:11:16.254Z,77.30
2019-05-07T08:13:47.829Z,69.50
2019-05-07T08:16:22.259Z,68.90
2019-05-07T08:18:52.213Z,72.00
2019-05-07T08:21:35.035Z,72.20
2019-05-07T08:24:04.624Z,75.20
2019-05-07T08:29:22.534Z,74.90
2019-05-07T08:31:54.730Z,74.10
2019-05-07T08:34:27.691Z,69.70
2019-05-07T08:36:57.147Z,70.00
2019-05-07T08:39:26.652Z,66.30
2019-05-07T08:41:56.154Z,64.90
2019-05-07T08:44:27.207Z,66.10
2019-05-07T08:46:58.224Z,64.40
2019-05-07T08:49:37.051Z,63.70
2019-05-07T08:52:03.033Z,63.50
2019-05-07T08:54:32.657Z,67.70
2019-05-07T08:57:02.799Z,66.20
2019-05-07T08:59:33.550Z,65.00
2019-05-07T09:02:03.245Z,67.90
2019-05-07T09:04:33.043Z,69.70
2019-05-07T09:07:02.944Z,66.00
2019-05-07T09:09:32.802Z,66.40
2019-05-07T09:12:03.087Z,69.60
2019-05-07T09:14:33.516Z,69.10
2019-05-07T09:17:03.134Z,66.70
2019-05-07T09:19:46.793Z,66.70
2019-05-07T09:22:18.138Z,67.30
2019-05-07T09:24:48.853Z,66.20
2019-05-07T09:27:22.147Z,70.70
2019-05-07T09:29:52.882Z,65.40
2019-05-07T09:32:24.044Z,63.10
2019-05-07T09:34:55.102Z,65.50
2019-05-07T09:37:26.243Z,65.00
2019-05-07T09:39:55.661Z,68.20
2019-05-07T09:42:25.110Z,64.30
2019-05-07T09:44:54.616Z,66.00
2019-05-07T09:47:24.221Z,67.80
2019-05-07T09:50:04.639Z,66.80
2019-05-07T09:52:31.929Z,70.10
2019-05-07T09:55:11.057Z,66.10
2019-05-07T09:57:34.754Z,65.10
2019-05-07T10:00:07.204Z,70.20
2019-05-07T10:02:38.561Z,66.90
2019-05-07T10:05:09.818Z,65.80
2019-05-07T10:07:39.329Z,66.90
2019-05-07T10:10:09.434Z,63.30
2019-05-07T10:12:42.086Z,66.50
2019-05-07T10:15:12.465Z,64.40
2019-05-07T10:17:43.700Z,65.10
2019-05-07T10:20:21.569Z,67.60
2019-05-07T10:22:46.505Z,62.30
2019-05-07T10:25:16.402Z,63.10
2019-05-07T10:27:46.097Z,69.90
2019-05-07T10:30:16.445Z,64.60
2019-05-07T10:32:46.141Z,66.50
2019-05-07T10:35:16.147Z,63.00
2019-05-07T10:37:45.669Z,63.10
2019-05-07T10:40:29.754Z,64.90
2019-05-07T10:43:01.251Z,62.60
2019-05-07T10:45:32.695Z,61.80
2019-05-07T10:48:06.521Z,61.70
2019-05-07T10:50:39.305Z,64.80
2019-05-07T10:53:09.026Z,61.60
2019-05-07T10:55:38.579Z,65.90
2019-05-07T10:58:08.357Z,59.30
2019-05-07T11:00:38.035Z,60.00
2019-05-07T11:03:09.206Z,63.10
2019-05-07T11:05:38.865Z,60.80
2019-05-07T11:08:09.561Z,58.60
2019-05-07T11:10:41.875Z,66.30
2019-05-07T11:13:12.832Z,58.10
2019-05-07T11:15:44.216Z,58.10
2019-05-07T11:18:15.514Z,59.70
2019-05-07T11:20:50.279Z,61.50
2019-05-07T11:23:16.798Z,63.80
2019-05-07T11:25:47.256Z,61.60
2019-05-07T11:28:16.820Z,57.70
2019-05-07T11:30:48.130Z,57.40
2019-05-07T11:33:17.777Z,61.70
2019-05-07T11:35:47.397Z,62.30
2019-05-07T11:38:21.593Z,57.20
2019-05-07T11:40:49.252Z,60.10
2019-05-07T11:43:22.130Z,58.30
2019-05-07T11:45:54.304Z,61.90
2019-05-07T11:48:25.756Z,56.90
2019-05-07T11:51:03.309Z,57.60
2019-05-07T11:53:32.553Z,58.40
2019-05-07T11:56:02.555Z,58.90
2019-05-07T11:58:32.688Z,60.00
2019-05-07T12:01:04.708Z,60.10
2019-05-07T12:03:34.487Z,59.60
2019-05-07T12:06:05.189Z,58.00
2019-05-07T12:08:42.528Z,57.60
2019-05-07T12:11:05.942Z,60.10
2019-05-07T12:13:35.648Z,58.00
2019-05-07T12:16:05.175Z,57.20
2019-05-07T12:18:34.702Z,56.60
2019-05-07T12:21:17.497Z,58.50
2019-05-07T12:23:35.321Z,59.00
2019-05-07T12:26:05.033Z,58.30
2019-05-07T12:28:34.562Z,62.00
2019-05-07T12:31:04.185Z,59.60
2019-05-07T12:33:35.292Z,58.70
2019-05-07T12:36:06.518Z,58.20
2019-05-07T12:38:36.060Z,57.00
2019-05-07T12:41:07.383Z,58.30
2019-05-07T12:43:36.903Z,58.90
2019-05-07T12:46:06.380Z,63.90
2019-05-07T12:48:35.975Z,61.20
2019-05-07T12:51:05.578Z,60.60
2019-05-07T12:53:36.792Z,58.70
2019-05-07T12:56:06.346Z,57.60
2019-05-07T12:58:35.937Z,56.00
2019-05-07T13:01:07.258Z,58.80
2019-05-07T13:03:38.696Z,56.10
2019-05-07T13:06:08.250Z,54.70
2019-05-07T13:09:24.986Z,59.50
2019-05-07T13:11:54.522Z,58.80
2019-05-07T13:14:24.076Z,58.30
2019-05-07T13:16:53.531Z,57.50
2019-05-07T13:19:25.901Z,59.60
2019-05-07T13:21:55.353Z,56.10
2019-05-07T13:24:24.863Z,56.70
2019-05-07T13:26:54.901Z,59.30
2019-05-07T13:29:24.447Z,58.60
2019-05-07T13:31:55.514Z,56.70
2019-05-07T13:34:42.797Z,57.50
2019-05-07T13:40:52.615Z,57.30
2019-05-07T13:43:23.568Z,56.70
2019-05-07T13:45:54.842Z,58.70
2019-05-07T13:48:25.827Z,57.60
2019-05-07T13:50:55.836Z,57.00
2019-05-07T13:53:25.585Z,56.70
2019-05-07T13:55:57.932Z,55.10
2019-05-07T13:58:27.500Z,52.10
2019-05-07T14:00:58.690Z,52.80
2019-05-07T14:03:28.273Z,56.00
2019-05-07T14:05:57.964Z,52.80
2019-05-07T14:08:32.056Z,53.80
2019-05-07T14:11:02.775Z,55.30
2019-05-07T14:13:33.797Z,56.40
2019-05-07T14:16:05.539Z,58.10
2019-05-07T14:18:39.197Z,58.00
2019-05-07T14:21:08.908Z,56.60
2019-05-07T14:23:38.253Z,58.10
2019-05-07T14:26:07.605Z,57.00
2019-05-07T14:28:42.309Z,58.10
2019-05-07T14:31:12.314Z,55.10
2019-05-07T14:33:43.763Z,57.40
2019-05-07T14:36:15.070Z,55.50
2019-05-07T14:38:46.619Z,55.50
2019-05-07T14:41:16.153Z,56.30
2019-05-07T14:43:48.908Z,57.40
2019-05-07T14:46:18.473Z,57.70
2019-05-07T14:48:47.874Z,61.30
2019-05-07T14:51:17.308Z,59.50
2019-05-07T14:53:46.701Z,59.80
2019-05-07T14:56:16.593Z,59.20
2019-05-07T14:58:46.047Z,59.50
2019-05-07T15:01:15.457Z,56.40
2019-05-07T15:03:45.078Z,56.30
2019-05-07T15:06:14.630Z,58.30
2019-05-07T15:08:44.061Z,52.30
2019-05-07T15:11:13.550Z,52.60
2019-05-07T15:13:43.032Z,53.00
2019-05-07T15:16:13.221Z,53.60
2019-05-07T15:18:44.469Z,56.80
2019-05-07T15:21:14.159Z,54.90
2019-05-07T15:23:43.661Z,54.70
2019-05-07T15:26:13.171Z,55.50
2019-05-07T15:28:44.413Z,54.70
2019-05-07T15:31:16.670Z,54.20
2019-05-07T15:33:46.092Z,53.40
2019-05-07T15:36:16.508Z,52.60
2019-05-07T15:38:45.931Z,53.00
2019-05-07T15:41:15.745Z,50.80
2019-05-07T15:43:46.220Z,52.00
2019-05-07T15:46:16.152Z,54.90
2019-05-07T15:48:45.792Z,53.80
2019-05-07T15:51:16.984Z,55.10
2019-05-07T15:53:48.369Z,53.00
2019-05-07T15:56:17.816Z,54.20
2019-05-07T15:58:47.410Z,56.40
2019-05-07T16:01:16.884Z,52.80
2019-05-07T16:03:47.242Z,52.00
2019-05-07T16:06:16.701Z,51.70
2019-05-07T16:08:49.170Z,52.70
2019-05-07T16:11:19.893Z,53.30
2019-05-07T16:13:52.448Z,54.10
2019-05-07T16:16:23.580Z,53.50
2019-05-07T16:18:54.775Z,55.70
2019-05-07T16:21:24.339Z,57.00
2019-05-07T16:23:54.832Z,54.40
2019-05-07T16:26:24.336Z,53.90
2019-05-07T16:28:53.774Z,55.10
2019-05-07T16:31:24.620Z,55.40
2019-05-07T16:33:54.329Z,55.40
2019-05-07T16:36:23.860Z,55.30
2019-05-07T16:38:53.345Z,54.50
2019-05-07T16:41:23.068Z,54.50
2019-05-07T16:43:52.550Z,55.00
2019-05-07T16:46:22.534Z,56.00
2019-05-07T16:48:52.083Z,56.10
2019-05-07T16:51:22.352Z,56.30
2019-05-07T16:53:52.529Z,55.70
2019-05-07T16:56:22.693Z,56.30
2019-05-07T16:58:54.065Z,56.60
2019-05-07T17:01:24.728Z,58.10
2019-05-07T17:03:55.995Z,58.50
2019-05-07T17:06:25.460Z,59.20
2019-05-07T17:08:56.718Z,59.80
2019-05-07T17:11:26.233Z,60.60
2019-05-07T17:13:55.820Z,60.10
2019-05-07T17:16:25.371Z,61.20
2019-05-07T17:18:54.806Z,62.40
2019-05-07T17:21:24.560Z,63.90
2019-05-07T17:23:54.017Z,63.40
2019-05-07T17:26:23.713Z,64.60
2019-05-07T17:28:53.262Z,66.30
2019-05-07T17:31:23.016Z,66.70
2019-05-07T17:33:52.650Z,67.30
2019-05-07T17:36:22.419Z,67.90
2019-05-07T17:38:52.218Z,70.10
2019-05-07T17:41:26.515Z,68.80
2019-05-07T17:43:52.943Z,68.50
2019-05-07T17:46:23.188Z,69.60
2019-05-07T17:48:52.762Z,70.40
2019-05-07T17:51:23.881Z,72.50
2019-05-07T17:53:59.350Z,73.00
2019-05-07T17:56:25.314Z,74.50
2019-05-07T17:58:54.788Z,74.50
2019-05-07T18:01:25.984Z,73.10
2019-05-07T18:03:55.589Z,73.40
2019-05-07T18:06:25.107Z,72.70
2019-05-07T18:08:54.590Z,72.90
2019-05-07T18:11:24.400Z,73.20
2019-05-07T18:13:55.971Z,73.00
2019-05-07T18:16:28.300Z,73.90
2019-05-07T18:18:57.741Z,74.30
2019-05-07T18:21:27.212Z,77.00
2019-05-07T18:23:56.621Z,79.80
2019-05-07T18:26:30.498Z,84.50
2019-05-07T18:28:57.261Z,84.00
2019-05-07T18:31:28.322Z,80.60
2019-05-07T18:33:59.635Z,81.20
2019-05-07T18:36:29.203Z,81.60
2019-05-07T18:38:58.586Z,80.80
2019-05-07T18:41:28.088Z,79.00
2019-05-07T18:44:08.881Z,78.60
2019-05-07T18:46:28.769Z,79.50
2019-05-07T18:48:58.223Z,83.80
2019-05-07T18:51:27.693Z,85.50
2019-05-07T18:53:57.088Z,82.90
2019-05-07T18:56:26.487Z,85.70
2019-05-07T18:58:55.846Z,88.10
2019-05-07T19:01:26.963Z,87.70
2019-05-07T19:03:57.102Z,90.20
2019-05-07T19:06:26.497Z,90.40
2019-05-07T19:08:55.945Z,89.20
2019-05-07T19:11:25.407Z,89.50
2019-05-07T19:13:56.135Z,89.00
2019-05-07T19:16:25.794Z,89.20
2019-05-07T19:18:55.225Z,88.10
2019-05-07T19:21:24.580Z,87.80
2019-05-07T19:23:54.016Z,87.50
2019-05-07T19:26:23.420Z,83.80
2019-05-07T19:28:52.862Z,91.30
2019-05-07T19:31:22.258Z,92.80
2019-05-07T19:33:52.789Z,93.10
2019-05-07T19:36:22.406Z,94.80
2019-05-07T19:38:53.068Z,93.10
2019-05-07T19:41:22.531Z,95.60
2019-05-07T19:43:52.765Z,94.70
2019-05-07T19:46:22.938Z,96.20
2019-05-07T19:48:53.611Z,94.70
2019-05-07T19:51:23.070Z,94.80
2019-05-07T19:53:52.669Z,94.50
2019-05-07T19:56:24.040Z,94.80
2019-05-07T19:58:53.661Z,96.40
2019-05-07T20:01:24.789Z,96.90
2019-05-07T20:03:54.281Z,99.20
2019-05-07T20:06:25.139Z,99.90
2019-05-07T20:09:08.114Z,99.90
2019-05-07T20:11:27.446Z,99.90
2019-05-07T20:13:56.836Z,99.90
2019-05-07T20:16:26.407Z,99.90
2019-05-07T20:18:55.833Z,99.90
2019-05-07T20:21:38.857Z,99.90
2019-05-07T20:24:08.402Z,99.90
2019-05-07T20:26:37.784Z,99.80
2019-05-07T20:29:07.244Z,99.80
2019-05-07T20:31:36.665Z,99.90
2019-05-07T20:34:06.445Z,99.00
2019-05-07T20:36:35.863Z,99.70
2019-05-07T20:39:07.295Z,99.90
2019-05-07T20:41:38.507Z,99.90
2019-05-07T20:44:07.925Z,99.90
2019-05-07T20:46:37.565Z,99.90
2019-05-07T20:49:06.979Z,99.90
2019-05-07T20:51:36.482Z,99.90
2019-05-07T20:54:07.665Z,99.90
2019-05-07T20:56:38.726Z,99.90
2019-05-07T20:59:08.251Z,99.90
2019-05-07T21:01:37.714Z,99.90
2019-05-07T21:04:07.171Z,99.90
2019-05-07T21:06:36.765Z,99.90
2019-05-07T21:09:08.343Z,99.90
2019-05-07T21:11:38.248Z,99.90
2019-05-07T21:14:07.778Z,99.90
2019-05-07T21:16:37.261Z,99.90
2019-05-07T21:19:06.772Z,99.90
2019-05-07T21:21:36.154Z,99.90
2019-05-07T21:24:05.837Z,99.90
2019-05-07T21:26:35.555Z,99.90
2019-05-07T21:29:05.735Z,99.90
2019-05-07T21:31:35.133Z,99.90
2019-05-07T21:34:04.736Z,99.90
2019-05-07T21:36:34.205Z,99.90
2019-05-07T21:39:05.617Z,99.90
2019-05-07T21:41:35.181Z,99.90
2019-05-07T21:44:04.646Z,99.90
2019-05-07T21:46:34.036Z,99.90
2019-05-07T21:49:03.404Z,99.90
2019-05-07T21:51:32.864Z,99.90
2019-05-07T21:54:04.052Z,99.90
2019-05-07T21:56:35.290Z,99.90
2019-05-07T21:59:06.471Z,99.90
2019-05-07T22:01:37.658Z,99.90
2019-05-07T22:04:07.179Z,99.90
2019-05-07T22:06:36.740Z,99.90
2019-05-07T22:09:07.596Z,99.90
2019-05-07T22:11:38.023Z,99.90
2019-05-07T22:14:07.531Z,99.90
2019-05-07T22:16:37.113Z,99.90
2019-05-07T22:19:06.760Z,99.90
2019-05-07T22:21:36.206Z,99.90
2019-05-07T22:24:05.883Z,99.90
2019-05-07T22:26:35.494Z,99.90
2019-05-07T22:29:05.075Z,99.90
2019-05-07T22:31:36.356Z,99.90
2019-05-07T22:34:07.551Z,99.90
2019-05-07T22:36:37.422Z,99.90
2019-05-07T22:39:08.921Z,99.90
2019-05-07T22:41:42.315Z,99.90
2019-05-07T22:44:12.114Z,99.90
2019-05-07T22:46:42.858Z,99.90
2019-05-07T22:49:12.464Z,99.90
2019-05-07T22:51:41.856Z,99.90
2019-05-07T22:54:11.892Z,99.90
2019-05-07T22:56:43.127Z,99.90
2019-05-07T22:59:14.715Z,99.90
2019-05-07T23:01:43.993Z,99.90
2019-05-07T23:04:13.576Z,99.90
2019-05-07T23:06:43.712Z,99.90
2019-05-07T23:09:13.497Z,99.90
2019-05-07T23:11:43.017Z,99.90
2019-05-07T23:14:12.531Z,99.90
2019-05-07T23:16:43.087Z,99.90
2019-05-07T23:19:14.080Z,99.90
2019-05-07T23:21:44.865Z,99.90
2019-05-07T23:24:14.287Z,99.90
2019-05-07T23:26:49.881Z,99.90
2019-05-07T23:29:14.978Z,99.90
2019-05-07T23:31:44.458Z,99.90
2019-05-07T23:34:14.022Z,99.90
2019-05-07T23:36:43.577Z,99.90
2019-05-07T23:39:14.649Z,99.90
2019-05-07T23:41:45.800Z,99.90
2019-05-07T23:44:16.775Z,99.90
2019-05-07T23:46:46.455Z,99.90
2019-05-07T23:49:16.234Z,99.90
2019-05-07T23:51:45.825Z,99.90
2019-05-07T23:54:16.283Z,99.90
2019-05-07T23:56:46.811Z,99.90
2019-05-07T23:59:16.188Z,99.90
